createdAt,value
2015-10-02T00:00:03.744Z,49
2015-10-02T00:00:22.338Z,54
2015-10-02T00:00:41.107Z,51
2015-10-02T00:00:59.888Z,53
2015-10-02T00:01:18.372Z,52
2015-10-02T00:01:37.078Z,52
2015-10-02T00:01:55.594Z,52
2015-10-02T00:02:14.157Z,52
2015-10-02T00:02:32.519Z,51
2015-10-02T00:02:51.081Z,52
2015-10-02T00:03:09.550Z,52
2015-10-02T00:03:28.144Z,55
2015-10-02T00:03:46.708Z,54
2015-10-02T00:04:05.240Z,52
2015-10-02T00:04:23.912Z,55
2015-10-02T00:04:42.289Z,53
2015-10-02T00:05:00.648Z,54
2015-10-02T00:05:19.414Z,58
2015-10-02T00:05:37.838Z,55
2015-10-02T00:05:56.229Z,54
2015-10-02T00:06:14.635Z,51
2015-10-02T00:06:33.139Z,55
2015-10-02T00:06:52.077Z,53
2015-10-02T00:07:10.655Z,53
2015-10-02T00:07:29.108Z,57
2015-10-02T00:07:47.579Z,54
2015-10-02T00:08:05.969Z,58
2015-10-02T00:08:24.344Z,59
2015-10-02T00:08:42.957Z,54
2015-10-02T00:09:01.332Z,56
2015-10-02T00:09:19.722Z,58
2015-10-02T00:09:38.132Z,59
2015-10-02T00:09:56.554Z,56
2015-10-02T00:10:15.085Z,58
2015-10-02T00:10:33.600Z,56
2015-10-02T00:10:52.149Z,57
2015-10-02T00:11:10.602Z,57
2015-10-02T00:11:29.524Z,54
2015-10-02T00:11:47.996Z,57
2015-10-02T00:12:06.527Z,59
2015-10-02T00:12:25.152Z,57
2015-10-02T00:12:43.530Z,57
2015-10-02T00:13:01.952Z,57
2015-10-02T00:13:20.530Z,52
2015-10-02T00:13:38.890Z,56
2015-10-02T00:13:57.346Z,55
2015-10-02T00:14:15.971Z,56
2015-10-02T00:14:34.455Z,56
2015-10-02T00:14:53.098Z,57
2015-10-02T00:15:11.488Z,56
2015-10-02T00:15:30.223Z,56
2015-10-02T00:15:48.585Z,56
2015-10-02T00:16:07.054Z,55
2015-10-02T00:16:25.710Z,57
2015-10-02T00:16:43.991Z,56
2015-10-02T00:17:02.619Z,54
2015-10-02T00:17:20.979Z,55
2015-10-02T00:17:39.651Z,60
2015-10-02T00:17:58.091Z,60
2015-10-02T00:18:16.451Z,59
2015-10-02T00:18:34.779Z,59
2015-10-02T00:18:53.484Z,58
2015-10-02T00:19:11.984Z,58
2015-10-02T00:19:30.453Z,58
2015-10-02T00:19:48.812Z,56
2015-10-02T00:20:07.674Z,57
2015-10-02T00:20:26.159Z,58
2015-10-02T00:20:44.956Z,60
2015-10-02T00:21:03.318Z,59
2015-10-02T00:21:21.724Z,60
2015-10-02T00:21:40.162Z,59
2015-10-02T00:21:58.618Z,58
2015-10-02T00:22:16.977Z,56
2015-10-02T00:22:35.540Z,58
2015-10-02T00:22:53.977Z,57
2015-10-02T00:23:12.433Z,59
2015-10-02T00:23:30.793Z,57
2015-10-02T00:23:49.168Z,57
2015-10-02T00:24:07.560Z,54
2015-10-02T00:24:26.029Z,56
2015-10-02T00:24:44.592Z,55
2015-10-02T00:25:03.235Z,56
2015-10-02T00:25:21.782Z,57
2015-10-02T00:25:40.360Z,56
2015-10-02T00:25:58.907Z,56
2015-10-02T00:26:17.457Z,57
2015-10-02T00:26:36.113Z,56
2015-10-02T00:26:54.613Z,55
2015-10-02T00:27:13.131Z,56
2015-10-02T00:27:31.506Z,57
2015-10-02T00:27:49.865Z,56
2015-10-02T00:28:08.306Z,55
2015-10-02T00:28:26.774Z,55
2015-10-02T00:28:45.181Z,56
2015-10-02T00:29:03.759Z,56
2015-10-02T00:29:22.277Z,55
2015-10-02T00:29:40.762Z,55
2015-10-02T00:29:59.152Z,55
2015-10-02T00:30:17.780Z,55
2015-10-02T00:30:36.140Z,56
2015-10-02T00:30:54.499Z,57
2015-10-02T00:31:13.157Z,56
2015-10-02T00:31:31.532Z,57
2015-10-02T00:31:49.970Z,57
2015-10-02T00:32:08.392Z,57
2015-10-02T00:32:26.832Z,56
2015-10-02T00:32:45.301Z,56
2015-10-02T00:33:03.723Z,57
2015-10-02T00:33:22.101Z,56
2015-10-02T00:33:40.695Z,57
2015-10-02T00:33:59.210Z,56
2015-10-02T00:34:17.807Z,57
2015-10-02T00:34:36.307Z,56
2015-10-02T00:34:55.010Z,54
2015-10-02T00:35:13.434Z,56
2015-10-02T00:35:32.153Z,56
2015-10-02T00:35:50.856Z,56
2015-10-02T00:36:09.747Z,55
2015-10-02T00:36:28.203Z,55
2015-10-02T00:36:46.843Z,55
2015-10-02T00:37:05.203Z,55
2015-10-02T00:37:23.611Z,55
2015-10-02T00:37:42.002Z,53
2015-10-02T00:38:00.689Z,58
2015-10-02T00:38:19.098Z,57
2015-10-02T00:38:37.598Z,54
2015-10-02T00:38:55.958Z,56
2015-10-02T00:39:14.395Z,55
2015-10-02T00:39:32.945Z,57
2015-10-02T00:39:51.398Z,56
2015-10-02T00:40:09.851Z,57
2015-10-02T00:40:28.276Z,57
2015-10-02T00:40:46.886Z,58
2015-10-02T00:41:05.323Z,58
2015-10-02T00:41:23.920Z,56
2015-10-02T00:41:42.326Z,54
2015-10-02T00:42:00.920Z,53
2015-10-02T00:42:19.373Z,55
2015-10-02T00:42:37.766Z,55
2015-10-02T00:42:56.250Z,55
2015-10-02T00:43:14.687Z,57
2015-10-02T00:43:33.815Z,59
2015-10-02T00:43:52.253Z,58
2015-10-02T00:44:10.675Z,58
2015-10-02T00:44:29.162Z,55
2015-10-02T00:44:47.725Z,57
2015-10-02T00:45:06.147Z,56
2015-10-02T00:45:24.556Z,58
2015-10-02T00:45:43.009Z,55
2015-10-02T00:46:01.478Z,58
2015-10-02T00:46:19.868Z,57
2015-10-02T00:46:39.433Z,56
2015-10-02T00:46:57.823Z,57
2015-10-02T00:47:16.183Z,58
2015-10-02T00:47:34.967Z,57
2015-10-02T00:47:53.342Z,51
2015-10-02T00:48:11.826Z,57
2015-10-02T00:48:30.251Z,55
2015-10-02T00:48:48.658Z,57
2015-10-02T00:49:07.267Z,54
2015-10-02T00:49:25.720Z,53
2015-10-02T00:49:44.114Z,54
2015-10-02T00:50:02.489Z,54
2015-10-02T00:50:20.973Z,54
2015-10-02T00:50:39.397Z,55
2015-10-02T00:50:57.928Z,54
2015-10-02T00:51:16.334Z,54
2015-10-02T00:51:34.759Z,54
2015-10-02T00:51:53.166Z,55
2015-10-02T00:52:11.541Z,51
2015-10-02T00:52:30.181Z,52
2015-10-02T00:52:48.715Z,54
2015-10-02T00:53:07.387Z,54
2015-10-02T00:53:25.794Z,55
2015-10-02T00:53:44.172Z,56
2015-10-02T00:54:02.593Z,51
2015-10-02T00:54:21.156Z,52
2015-10-02T00:54:39.533Z,53
2015-10-02T00:54:58.111Z,52
2015-10-02T00:55:16.642Z,56
2015-10-02T00:55:35.174Z,52
2015-10-02T00:55:53.645Z,51
2015-10-02T00:56:12.005Z,54
2015-10-02T00:56:30.380Z,53
2015-10-02T00:56:48.929Z,51
2015-10-02T00:57:07.538Z,55
2015-10-02T00:57:25.991Z,56
2015-10-02T00:57:44.573Z,56
2015-10-02T00:58:02.948Z,56
2015-10-02T00:58:21.323Z,53
2015-10-02T00:58:39.888Z,53
2015-10-02T00:58:58.544Z,54
2015-10-02T00:59:17.060Z,56
2015-10-02T00:59:35.435Z,51
2015-10-02T00:59:53.875Z,52
2015-10-02T01:00:12.250Z,53
2015-10-02T01:00:31.047Z,52
2015-10-02T01:00:49.722Z,53
2015-10-02T01:01:08.269Z,53
2015-10-02T01:01:27.191Z,55
2015-10-02T01:01:45.630Z,52
2015-10-02T01:02:04.271Z,53
2015-10-02T01:02:22.693Z,48
2015-10-02T01:02:41.177Z,52
2015-10-02T01:02:59.789Z,52
2015-10-02T01:03:18.477Z,51
2015-10-02T01:03:36.852Z,52
2015-10-02T01:03:55.230Z,52
2015-10-02T01:04:13.714Z,51
2015-10-02T01:04:32.449Z,50
2015-10-02T01:04:50.842Z,52
2015-10-02T01:05:09.342Z,53
2015-10-02T01:05:27.702Z,53
2015-10-02T01:05:46.483Z,50
2015-10-02T01:06:04.861Z,48
2015-10-02T01:06:23.470Z,51
2015-10-02T01:06:42.142Z,49
2015-10-02T01:07:00.644Z,51
2015-10-02T01:07:19.097Z,49
2015-10-02T01:07:37.675Z,52
2015-10-02T01:07:56.241Z,49
2015-10-02T01:08:14.631Z,54
2015-10-02T01:08:33.163Z,52
2015-10-02T01:08:51.616Z,53
2015-10-02T01:09:09.978Z,52
2015-10-02T01:09:28.697Z,54
2015-10-02T01:09:47.322Z,51
2015-10-02T01:10:05.903Z,53
2015-10-02T01:10:24.309Z,52
2015-10-02T01:10:42.731Z,55
2015-10-02T01:11:01.093Z,55
2015-10-02T01:11:19.468Z,54
2015-10-02T01:11:37.983Z,56
2015-10-02T01:11:56.514Z,51
2015-10-02T01:12:15.205Z,49
2015-10-02T01:12:33.705Z,48
2015-10-02T01:12:52.439Z,50
2015-10-02T01:13:10.958Z,46
2015-10-02T01:13:29.583Z,47
2015-10-02T01:13:47.942Z,48
2015-10-02T01:14:06.444Z,47
2015-10-02T01:14:24.913Z,51
2015-10-02T01:14:43.601Z,51
2015-10-02T01:15:02.151Z,53
2015-10-02T01:15:20.870Z,52
2015-10-02T01:15:39.261Z,50
2015-10-02T01:15:57.823Z,50
2015-10-02T01:16:16.200Z,50
2015-10-02T01:16:34.747Z,50
2015-10-02T01:16:53.028Z,50
2015-10-02T01:17:11.391Z,50
2015-10-02T01:17:30.203Z,50
2015-10-02T01:17:48.578Z,50
2015-10-02T01:18:06.988Z,48
2015-10-02T01:18:25.472Z,49
2015-10-02T01:18:43.909Z,50
2015-10-02T01:19:02.472Z,51
2015-10-02T01:19:21.115Z,52
2015-10-02T01:19:39.521Z,53
2015-10-02T01:19:57.974Z,50
2015-10-02T01:20:16.352Z,54
2015-10-02T01:20:34.899Z,51
2015-10-02T01:20:53.430Z,43
2015-10-02T01:21:11.948Z,43
2015-10-02T01:21:30.323Z,50
2015-10-02T01:21:48.885Z,50
2015-10-02T01:22:07.466Z,43
2015-10-02T01:22:25.873Z,48
2015-10-02T01:22:44.373Z,43
2015-10-02T01:23:02.951Z,56
2015-10-02T01:23:21.594Z,49
2015-10-02T01:23:40.266Z,46
2015-10-02T01:23:58.813Z,50
2015-10-02T01:24:17.269Z,49
2015-10-02T01:24:35.691Z,48
2015-10-02T01:24:54.191Z,48
2015-10-02T01:25:12.835Z,49
2015-10-02T01:25:31.428Z,50
2015-10-02T01:25:50.147Z,48
2015-10-02T01:26:08.759Z,49
2015-10-02T01:26:27.165Z,49
2015-10-02T01:26:45.805Z,47
2015-10-02T01:27:04.477Z,47
2015-10-02T01:27:22.965Z,47
2015-10-02T01:27:41.512Z,48
2015-10-02T01:28:00.215Z,48
2015-10-02T01:28:18.545Z,50
2015-10-02T01:28:37.092Z,48
2015-10-02T01:28:55.545Z,50
2015-10-02T01:29:13.923Z,49
2015-10-02T01:29:32.329Z,48
2015-10-02T01:29:50.845Z,48
2015-10-02T01:30:09.267Z,49
2015-10-02T01:30:27.660Z,49
2015-10-02T01:30:46.113Z,49
2015-10-02T01:31:04.645Z,47
2015-10-02T01:31:23.007Z,50
2015-10-02T01:31:41.788Z,49
2015-10-02T01:32:00.163Z,48
2015-10-02T01:32:18.869Z,48
2015-10-02T01:32:37.229Z,50
2015-10-02T01:32:55.682Z,50
2015-10-02T01:33:14.041Z,48
2015-10-02T01:33:32.747Z,48
2015-10-02T01:33:51.185Z,50
2015-10-02T01:34:09.544Z,50
2015-10-02T01:34:27.906Z,49
2015-10-02T01:34:46.624Z,49
2015-10-02T01:35:05.109Z,49
2015-10-02T01:35:23.502Z,48
2015-10-02T01:35:41.846Z,48
2015-10-02T01:36:00.409Z,48
2015-10-02T01:36:18.815Z,49
2015-10-02T01:36:37.786Z,49
2015-10-02T01:36:56.223Z,48
2015-10-02T01:37:14.661Z,49
2015-10-02T01:37:33.179Z,49
2015-10-02T01:37:51.554Z,49
2015-10-02T01:38:09.914Z,48
2015-10-02T01:38:28.604Z,49
2015-10-02T01:38:46.995Z,50
2015-10-02T01:39:05.401Z,48
2015-10-02T01:39:23.823Z,49
2015-10-02T01:39:42.545Z,49
2015-10-02T01:40:00.998Z,49
2015-10-02T01:40:19.513Z,47
2015-10-02T01:40:37.876Z,48
2015-10-02T01:40:56.423Z,49
2015-10-02T01:41:14.969Z,48
2015-10-02T01:41:33.440Z,48
2015-10-02T01:41:52.034Z,48
2015-10-02T01:42:10.565Z,49
2015-10-02T01:42:29.034Z,50
2015-10-02T01:42:47.585Z,50
2015-10-02T01:43:06.022Z,51
2015-10-02T01:43:24.444Z,50
2015-10-02T01:43:42.915Z,48
2015-10-02T01:44:01.602Z,49
2015-10-02T01:44:19.962Z,49
2015-10-02T01:44:38.386Z,49
2015-10-02T01:44:56.808Z,49
2015-10-02T01:45:15.229Z,49
2015-10-02T01:45:33.607Z,48
2015-10-02T01:45:52.186Z,47
2015-10-02T01:46:10.842Z,49
2015-10-02T01:46:29.498Z,49
2015-10-02T01:46:48.048Z,48
2015-10-02T01:47:06.673Z,49
2015-10-02T01:47:25.017Z,48
2015-10-02T01:47:43.612Z,49
2015-10-02T01:48:01.972Z,48
2015-10-02T01:48:20.534Z,48
2015-10-02T01:48:39.256Z,49
2015-10-02T01:48:58.022Z,49
2015-10-02T01:49:16.397Z,49
2015-10-02T01:49:35.053Z,50
2015-10-02T01:49:53.509Z,49
2015-10-02T01:50:11.868Z,50
2015-10-02T01:50:30.650Z,50
2015-10-02T01:50:49.262Z,49
2015-10-02T01:51:07.825Z,49
2015-10-02T01:51:26.309Z,49
2015-10-02T01:51:45.093Z,50
2015-10-02T01:52:03.796Z,50
2015-10-02T01:52:22.609Z,50
2015-10-02T01:52:41.206Z,49
2015-10-02T01:52:59.643Z,49
2015-10-02T01:53:18.252Z,49
2015-10-02T01:53:37.190Z,50
2015-10-02T01:53:55.848Z,50
2015-10-02T01:54:14.270Z,51
2015-10-02T01:54:32.926Z,51
2015-10-02T01:54:51.726Z,50
2015-10-02T01:55:10.242Z,49
2015-10-02T01:55:28.679Z,50
2015-10-02T01:55:47.151Z,50
2015-10-02T01:56:05.760Z,49
2015-10-02T01:56:24.292Z,50
2015-10-02T01:56:42.682Z,50
2015-10-02T01:57:01.295Z,49
2015-10-02T01:57:19.576Z,50
2015-10-02T01:57:37.982Z,50
2015-10-02T01:57:56.359Z,50
2015-10-02T01:58:14.687Z,50
2015-10-02T01:58:33.250Z,50
2015-10-02T01:58:51.737Z,50
2015-10-02T01:59:10.847Z,50
2015-10-02T01:59:29.315Z,50
2015-10-02T01:59:47.815Z,48
2015-10-02T02:00:06.318Z,48
2015-10-02T02:00:25.084Z,50
2015-10-02T02:00:43.740Z,50
2015-10-02T02:01:02.321Z,49
2015-10-02T02:01:20.806Z,50
2015-10-02T02:01:39.228Z,50
2015-10-02T02:01:57.870Z,49
2015-10-02T02:02:16.417Z,49
2015-10-02T02:02:35.151Z,49
2015-10-02T02:02:53.730Z,49
2015-10-02T02:03:12.671Z,49
2015-10-02T02:03:31.234Z,49
2015-10-02T02:03:49.734Z,48
2015-10-02T02:04:08.626Z,48
2015-10-02T02:04:27.079Z,47
2015-10-02T02:04:45.642Z,48
2015-10-02T02:05:04.145Z,48
2015-10-02T02:05:22.629Z,49
2015-10-02T02:05:41.457Z,48
2015-10-02T02:06:00.051Z,49
2015-10-02T02:06:18.445Z,49
2015-10-02T02:06:36.992Z,49
2015-10-02T02:06:55.445Z,48
2015-10-02T02:07:13.915Z,48
2015-10-02T02:07:32.384Z,49
2015-10-02T02:07:50.837Z,49
2015-10-02T02:08:09.262Z,49
2015-10-02T02:08:27.715Z,50
2015-10-02T02:08:46.122Z,49
2015-10-02T02:09:04.609Z,51
2015-10-02T02:09:23.375Z,48
2015-10-02T02:09:41.734Z,49
2015-10-02T02:10:00.109Z,49
2015-10-02T02:10:18.502Z,49
2015-10-02T02:10:36.845Z,49
2015-10-02T02:10:55.408Z,49
2015-10-02T02:11:13.692Z,49
2015-10-02T02:11:32.348Z,50
2015-10-02T02:11:51.036Z,48
2015-10-02T02:12:09.633Z,50
2015-10-02T02:12:28.195Z,49
2015-10-02T02:12:46.601Z,50
2015-10-02T02:13:05.275Z,49
2015-10-02T02:13:24.260Z,49
2015-10-02T02:13:42.713Z,48
2015-10-02T02:14:01.228Z,49
2015-10-02T02:14:19.591Z,49
2015-10-02T02:14:37.950Z,49
2015-10-02T02:14:56.356Z,49
2015-10-02T02:15:15.047Z,50
2015-10-02T02:15:33.453Z,49
2015-10-02T02:15:51.937Z,49
2015-10-02T02:16:10.440Z,48
2015-10-02T02:16:28.862Z,50
2015-10-02T02:16:47.534Z,49
2015-10-02T02:17:06.112Z,50
2015-10-02T02:17:24.568Z,48
2015-10-02T02:17:42.928Z,49
2015-10-02T02:18:01.318Z,49
2015-10-02T02:18:19.945Z,49
2015-10-02T02:18:38.383Z,49
2015-10-02T02:18:56.867Z,49
2015-10-02T02:19:15.323Z,49
2015-10-02T02:19:33.683Z,48
2015-10-02T02:19:52.136Z,49
2015-10-02T02:20:10.576Z,49
2015-10-02T02:20:29.186Z,49
2015-10-02T02:20:47.561Z,48
2015-10-02T02:21:05.936Z,48
2015-10-02T02:21:24.438Z,48
2015-10-02T02:21:43.110Z,48
2015-10-02T02:22:01.625Z,50
2015-10-02T02:22:20.253Z,49
2015-10-02T02:22:38.816Z,50
2015-10-02T02:22:57.222Z,49
2015-10-02T02:23:15.584Z,48
2015-10-02T02:23:34.069Z,48
2015-10-02T02:23:52.631Z,50
2015-10-02T02:24:11.053Z,50
2015-10-02T02:24:29.680Z,48
2015-10-02T02:24:48.040Z,47
2015-10-02T02:25:06.477Z,48
2015-10-02T02:25:25.011Z,49
2015-10-02T02:25:43.402Z,49
2015-10-02T02:26:01.761Z,49
2015-10-02T02:26:20.124Z,49
2015-10-02T02:26:38.483Z,48
2015-10-02T02:26:57.014Z,49
2015-10-02T02:27:15.467Z,49
2015-10-02T02:27:34.173Z,49
2015-10-02T02:27:52.532Z,49
2015-10-02T02:28:10.891Z,46
2015-10-02T02:28:29.457Z,51
2015-10-02T02:28:47.894Z,51
2015-10-02T02:29:06.332Z,52
2015-10-02T02:29:24.789Z,52
2015-10-02T02:29:43.195Z,52
2015-10-02T02:30:01.758Z,49
2015-10-02T02:30:20.117Z,48
2015-10-02T02:30:38.635Z,47
2015-10-02T02:30:57.244Z,46
2015-10-02T02:31:15.588Z,47
2015-10-02T02:31:34.152Z,47
2015-10-02T02:31:52.715Z,46
2015-10-02T02:32:11.105Z,46
2015-10-02T02:32:29.469Z,47
2015-10-02T02:32:48.016Z,47
2015-10-02T02:33:06.422Z,47
2015-10-02T02:33:24.891Z,47
2015-10-02T02:33:43.252Z,47
2015-10-02T02:34:01.924Z,46
2015-10-02T02:34:20.330Z,45
2015-10-02T02:34:38.927Z,48
2015-10-02T02:34:57.364Z,48
2015-10-02T02:35:15.974Z,47
2015-10-02T02:35:34.321Z,48
2015-10-02T02:35:52.774Z,48
2015-10-02T02:36:11.149Z,48
2015-10-02T02:36:29.508Z,46
2015-10-02T02:36:48.104Z,47
2015-10-02T02:37:06.635Z,49
2015-10-02T02:37:25.026Z,50
2015-10-02T02:37:43.654Z,50
2015-10-02T02:38:02.044Z,50
2015-10-02T02:38:20.529Z,49
2015-10-02T02:38:38.937Z,50
2015-10-02T02:38:57.546Z,50
2015-10-02T02:39:15.984Z,48
2015-10-02T02:39:34.565Z,50
2015-10-02T02:39:53.331Z,50
2015-10-02T02:40:11.831Z,48
2015-10-02T02:40:30.206Z,49
2015-10-02T02:40:49.163Z,49
2015-10-02T02:41:07.585Z,50
2015-10-02T02:41:26.038Z,50
2015-10-02T02:41:44.619Z,49
2015-10-02T02:42:03.228Z,49
2015-10-02T02:42:21.588Z,49
2015-10-02T02:42:40.183Z,49
2015-10-02T02:42:58.543Z,50
2015-10-02T02:43:17.152Z,49
2015-10-02T02:43:35.621Z,48
2015-10-02T02:43:53.983Z,49
2015-10-02T02:44:12.389Z,47
2015-10-02T02:44:30.889Z,51
2015-10-02T02:44:49.236Z,51
2015-10-02T02:45:08.096Z,50
2015-10-02T02:45:26.674Z,50
2015-10-02T02:45:45.269Z,49
2015-10-02T02:46:03.723Z,50
2015-10-02T02:46:22.144Z,50
2015-10-02T02:46:40.629Z,48
2015-10-02T02:46:58.991Z,48
2015-10-02T02:47:17.382Z,49
2015-10-02T02:47:35.944Z,49
2015-10-02T02:47:54.399Z,48
2015-10-02T02:48:12.790Z,40
2015-10-02T02:48:31.149Z,48
2015-10-02T02:48:49.840Z,48
2015-10-02T02:49:08.199Z,48
2015-10-02T02:49:26.965Z,45
2015-10-02T02:49:45.359Z,49
2015-10-02T02:50:03.780Z,48
2015-10-02T02:50:22.280Z,48
2015-10-02T02:50:40.827Z,47
2015-10-02T02:50:59.268Z,47
2015-10-02T02:51:17.612Z,48
2015-10-02T02:51:36.049Z,51
2015-10-02T02:51:54.474Z,48
2015-10-02T02:52:12.880Z,47
2015-10-02T02:52:31.240Z,48
2015-10-02T02:52:49.695Z,47
2015-10-02T02:53:08.054Z,48
2015-10-02T02:53:26.679Z,48
2015-10-02T02:53:45.038Z,45
2015-10-02T02:54:03.448Z,46
2015-10-02T02:54:21.979Z,46
2015-10-02T02:54:40.338Z,48
2015-10-02T02:54:58.748Z,49
2015-10-02T02:55:17.138Z,48
2015-10-02T02:55:35.607Z,48
2015-10-02T02:55:54.063Z,49
2015-10-02T02:56:12.626Z,48
2015-10-02T02:56:30.985Z,47
2015-10-02T02:56:49.626Z,47
2015-10-02T02:57:07.971Z,48
2015-10-02T02:57:26.784Z,49
2015-10-02T02:57:45.206Z,48
2015-10-02T02:58:03.693Z,51
2015-10-02T02:58:22.052Z,49
2015-10-02T02:58:40.506Z,49
2015-10-02T02:58:59.212Z,50
2015-10-02T02:59:17.649Z,51
2015-10-02T02:59:36.134Z,51
2015-10-02T02:59:54.587Z,49
2015-10-02T03:00:13.168Z,49
2015-10-02T03:00:31.574Z,50
2015-10-02T03:00:50.293Z,50
2015-10-02T03:01:08.717Z,49
2015-10-02T03:01:27.092Z,47
2015-10-02T03:01:45.701Z,49
2015-10-02T03:02:04.219Z,51
2015-10-02T03:02:22.578Z,49
2015-10-02T03:02:41.172Z,48
2015-10-02T03:03:00.503Z,50
2015-10-02T03:03:18.894Z,49
2015-10-02T03:03:37.628Z,48
2015-10-02T03:03:56.003Z,51
2015-10-02T03:04:14.365Z,49
2015-10-02T03:04:33.037Z,51
2015-10-02T03:04:51.943Z,50
2015-10-02T03:05:10.320Z,50
2015-10-02T03:05:28.680Z,50
2015-10-02T03:05:47.352Z,50
2015-10-02T03:06:05.714Z,50
2015-10-02T03:06:24.230Z,50
2015-10-02T03:06:43.042Z,50
2015-10-02T03:07:01.420Z,49
2015-10-02T03:07:19.795Z,49
2015-10-02T03:07:38.217Z,50
2015-10-02T03:07:56.576Z,49
2015-10-02T03:08:15.001Z,49
2015-10-02T03:08:33.361Z,49
2015-10-02T03:08:51.736Z,49
2015-10-02T03:09:10.348Z,49
2015-10-02T03:09:28.739Z,50
2015-10-02T03:09:47.145Z,50
2015-10-02T03:10:05.756Z,50
2015-10-02T03:10:24.334Z,50
2015-10-02T03:10:42.709Z,49
2015-10-02T03:11:01.522Z,50
2015-10-02T03:11:20.275Z,50
2015-10-02T03:11:38.666Z,51
2015-10-02T03:11:57.275Z,51
2015-10-02T03:12:15.840Z,50
2015-10-02T03:12:34.325Z,50
2015-10-02T03:12:52.825Z,50
2015-10-02T03:13:11.500Z,50
2015-10-02T03:13:30.031Z,51
2015-10-02T03:13:48.687Z,50
2015-10-02T03:14:07.081Z,50
2015-10-02T03:14:25.581Z,50
2015-10-02T03:14:44.284Z,49
2015-10-02T03:15:02.659Z,50
2015-10-02T03:15:21.083Z,50
2015-10-02T03:15:39.489Z,50
2015-10-02T03:15:58.036Z,50
2015-10-02T03:16:16.585Z,50
2015-10-02T03:16:35.069Z,50
2015-10-02T03:16:53.429Z,50
2015-10-02T03:17:12.073Z,50
2015-10-02T03:17:30.714Z,50
2015-10-02T03:17:49.104Z,51
2015-10-02T03:18:07.761Z,50
2015-10-02T03:18:26.186Z,50
2015-10-02T03:18:44.811Z,50
2015-10-02T03:19:03.779Z,51
2015-10-02T03:19:22.359Z,50
2015-10-02T03:19:40.844Z,51
2015-10-02T03:19:59.359Z,51
2015-10-02T03:20:17.861Z,50
2015-10-02T03:20:36.393Z,51
2015-10-02T03:20:54.799Z,51
2015-10-02T03:21:13.549Z,52
2015-10-02T03:21:32.209Z,51
2015-10-02T03:21:50.787Z,51
2015-10-02T03:22:09.584Z,51
2015-10-02T03:22:28.181Z,51
2015-10-02T03:22:46.603Z,51
2015-10-02T03:23:04.962Z,51
2015-10-02T03:23:23.417Z,50
2015-10-02T03:23:42.058Z,51
2015-10-02T03:24:00.417Z,51
2015-10-02T03:24:18.964Z,50
2015-10-02T03:24:37.467Z,51
2015-10-02T03:24:55.842Z,50
2015-10-02T03:25:14.342Z,50
2015-10-02T03:25:32.908Z,50
2015-10-02T03:25:51.267Z,50
2015-10-02T03:26:09.876Z,49
2015-10-02T03:26:28.691Z,49
2015-10-02T03:26:47.222Z,50
2015-10-02T03:27:05.675Z,50
2015-10-02T03:27:24.097Z,50
2015-10-02T03:27:42.475Z,49
2015-10-02T03:28:00.881Z,50
2015-10-02T03:28:19.319Z,48
2015-10-02T03:28:37.947Z,49
2015-10-02T03:28:56.384Z,49
2015-10-02T03:29:15.088Z,49
2015-10-02T03:29:33.466Z,47
2015-10-02T03:29:51.856Z,49
2015-10-02T03:30:10.247Z,49
2015-10-02T03:30:28.655Z,49
2015-10-02T03:30:47.108Z,49
2015-10-02T03:31:05.530Z,50
2015-10-02T03:31:23.905Z,50
2015-10-02T03:31:42.377Z,49
2015-10-02T03:32:00.877Z,50
2015-10-02T03:32:19.767Z,49
2015-10-02T03:32:38.333Z,49
2015-10-02T03:32:56.786Z,49
2015-10-02T03:33:15.192Z,49
2015-10-02T03:33:33.508Z,50
2015-10-02T03:33:52.180Z,49
2015-10-02T03:34:10.680Z,49
2015-10-02T03:34:28.898Z,49
2015-10-02T03:34:47.525Z,49
2015-10-02T03:35:06.104Z,49
2015-10-02T03:35:24.479Z,50
2015-10-02T03:35:43.169Z,49
2015-10-02T03:36:01.857Z,49
2015-10-02T03:36:20.232Z,49
2015-10-02T03:36:38.624Z,49
2015-10-02T03:36:56.984Z,49
2015-10-02T03:37:15.780Z,49
2015-10-02T03:37:34.140Z,50
2015-10-02T03:37:52.612Z,49
2015-10-02T03:38:11.174Z,48
2015-10-02T03:38:29.565Z,49
2015-10-02T03:38:48.006Z,49
2015-10-02T03:39:06.678Z,49
2015-10-02T03:39:25.147Z,50
2015-10-02T03:39:43.961Z,49
2015-10-02T03:40:02.430Z,50
2015-10-02T03:40:21.055Z,49
2015-10-02T03:40:39.527Z,50
2015-10-02T03:40:58.152Z,50
2015-10-02T03:41:16.996Z,49
2015-10-02T03:41:35.371Z,50
2015-10-02T03:41:53.779Z,49
2015-10-02T03:42:12.248Z,49
2015-10-02T03:42:30.669Z,49
2015-10-02T03:42:49.063Z,49
2015-10-02T03:43:07.422Z,49
2015-10-02T03:43:26.735Z,50
2015-10-02T03:43:45.113Z,51
2015-10-02T03:44:03.660Z,50
2015-10-02T03:44:22.316Z,50
2015-10-02T03:44:40.785Z,51
2015-10-02T03:44:59.147Z,50
2015-10-02T03:45:17.585Z,51
2015-10-02T03:45:35.960Z,50
2015-10-02T03:45:54.525Z,49
2015-10-02T03:46:13.072Z,50
2015-10-02T03:46:31.838Z,49
2015-10-02T03:46:50.371Z,49
2015-10-02T03:47:09.027Z,50
2015-10-02T03:47:27.793Z,51
2015-10-02T03:47:46.152Z,50
2015-10-02T03:48:04.577Z,50
2015-10-02T03:48:22.968Z,49
2015-10-02T03:48:41.358Z,51
2015-10-02T03:48:59.736Z,51
2015-10-02T03:49:18.111Z,51
2015-10-02T03:49:36.486Z,51
2015-10-02T03:49:54.973Z,51
2015-10-02T03:50:13.707Z,50
2015-10-02T03:50:32.254Z,50
2015-10-02T03:50:50.863Z,50
2015-10-02T03:51:09.257Z,50
2015-10-02T03:51:27.804Z,51
2015-10-02T03:51:46.429Z,51
2015-10-02T03:52:04.916Z,50
2015-10-02T03:52:23.416Z,51
2015-10-02T03:52:42.057Z,51
2015-10-02T03:53:00.497Z,51
2015-10-02T03:53:18.857Z,51
2015-10-02T03:53:38.013Z,50
2015-10-02T03:53:56.640Z,50
2015-10-02T03:54:15.015Z,51
2015-10-02T03:54:33.296Z,50
2015-10-02T03:54:51.749Z,51
2015-10-02T03:55:10.316Z,51
2015-10-02T03:55:28.738Z,50
2015-10-02T03:55:47.113Z,51
2015-10-02T03:56:05.474Z,51
2015-10-02T03:56:24.021Z,51
2015-10-02T03:56:42.521Z,51
2015-10-02T03:57:01.071Z,51
2015-10-02T03:57:19.852Z,51
2015-10-02T03:57:38.211Z,50
2015-10-02T03:57:56.729Z,51
2015-10-02T03:58:15.088Z,51
2015-10-02T03:58:33.510Z,50
2015-10-02T03:58:52.010Z,51
2015-10-02T03:59:10.388Z,50
2015-10-02T03:59:28.904Z,50
2015-10-02T03:59:47.498Z,52
2015-10-02T04:00:05.860Z,51
2015-10-02T04:00:24.298Z,50
2015-10-02T04:00:42.813Z,50
2015-10-02T04:01:01.346Z,50
2015-10-02T04:01:19.846Z,49
2015-10-02T04:01:38.253Z,50
2015-10-02T04:01:56.784Z,58
2015-10-02T04:02:15.178Z,59
2015-10-02T04:02:33.568Z,59
2015-10-02T04:02:51.928Z,59
2015-10-02T04:03:10.384Z,58
2015-10-02T04:03:29.087Z,59
2015-10-02T04:03:48.024Z,60
2015-10-02T04:04:06.433Z,59
2015-10-02T04:04:24.823Z,59
2015-10-02T04:04:43.386Z,59
2015-10-02T04:05:01.842Z,59
2015-10-02T04:05:20.264Z,59
2015-10-02T04:05:38.467Z,58
2015-10-02T04:05:56.889Z,60
2015-10-02T04:06:15.251Z,58
2015-10-02T04:06:33.657Z,58
2015-10-02T04:06:52.110Z,58
2015-10-02T04:07:10.520Z,60
2015-10-02T04:07:28.895Z,59
2015-10-02T04:07:47.317Z,58
2015-10-02T04:08:05.678Z,58
2015-10-02T04:08:24.272Z,60
2015-10-02T04:08:42.834Z,59
2015-10-02T04:09:01.225Z,60
2015-10-02T04:09:19.681Z,59
2015-10-02T04:09:38.165Z,59
2015-10-02T04:09:56.665Z,58
2015-10-02T04:10:15.168Z,59
2015-10-02T04:10:33.606Z,59
2015-10-02T04:10:52.168Z,58
2015-10-02T04:11:10.390Z,58
2015-10-02T04:11:28.734Z,58
2015-10-02T04:11:47.359Z,58
2015-10-02T04:12:05.734Z,59
2015-10-02T04:12:24.330Z,58
2015-10-02T04:12:42.861Z,58
2015-10-02T04:13:01.236Z,61
2015-10-02T04:13:19.583Z,57
2015-10-02T04:13:38.442Z,58
2015-10-02T04:13:57.161Z,57
2015-10-02T04:14:15.523Z,56
2015-10-02T04:14:34.367Z,58
2015-10-02T04:14:52.804Z,54
2015-10-02T04:15:11.164Z,58
2015-10-02T04:15:29.634Z,55
2015-10-02T04:15:48.025Z,55
2015-10-02T04:16:06.447Z,53
2015-10-02T04:16:25.279Z,52
2015-10-02T04:16:43.732Z,52
2015-10-02T04:17:02.310Z,52
2015-10-02T04:17:21.094Z,50
2015-10-02T04:17:39.703Z,55
2015-10-02T04:17:58.156Z,56
2015-10-02T04:18:16.534Z,54
2015-10-02T04:18:34.893Z,51
2015-10-02T04:18:53.472Z,51
2015-10-02T04:19:11.987Z,52
2015-10-02T04:19:30.427Z,51
2015-10-02T04:19:48.911Z,52
2015-10-02T04:20:07.645Z,55
2015-10-02T04:20:26.242Z,55
2015-10-02T04:20:44.742Z,58
2015-10-02T04:21:03.336Z,54
2015-10-02T04:21:21.730Z,50
2015-10-02T04:21:40.292Z,51
2015-10-02T04:21:58.839Z,48
2015-10-02T04:22:17.339Z,52
2015-10-02T04:22:35.795Z,55
2015-10-02T04:22:54.248Z,61
2015-10-02T04:23:12.795Z,61
2015-10-02T04:23:31.236Z,56
2015-10-02T04:23:49.782Z,57